Sonic Adventure (DX): Time Rankings

Records: Times | Rings | Scores | Races | Bosses | Freestyle
Leaders: Times | Rings | Scores | Races | Bosses | Freestyle | Overall
Rank Player Percent Points Date
1 Gamepro011 99.6% 20 02-09-16
2 Sonicspeedruner 98.9% 57 02-09-16
3 Dashjump 95.4% 243 02-09-16
4 Jawzun 95.4% 244 02-09-16
5 DarkPolarNight 93.2% 364 02-09-16
6 F-Man 92.5% 401 02-09-16
7 drminus 91.9% 433 02-09-16
8 THC98 91.5% 457 02-09-16
9 ike6252 89.9% 540 02-09-16
10 Avento128bits 89.7% 554 02-09-16
11 francisco 89.3% 574 02-09-16
12 DarkspinesSonic 88.9% 597 02-09-16
13 Marth 88.8% 602 02-09-16
14 frankoredstrato 87.5% 671 02-09-16
15 Paragod 84.6% 827 02-09-16
16 HyperSonic7701 84.4% 838 02-09-16
17 chainchumper 84.2% 845 02-09-16
18 InferSaime 81.5% 995 02-09-16
19 TheRealShadnic 81.4% 1000 02-09-16
20 Stefan 79.9% 1078 02-09-16
21 Redd 79.4% 1105 02-09-16
22 PfoSonic 79.3% 1112 02-09-16
23 Coolfansonic 77.7% 1198 02-09-16
24 bertin 77.5% 1210 02-09-16
25 yoshifan 77.0% 1233 02-09-16
26 xXMegaManXx 76.7% 1250 02-09-16
27 Dave Cramer 75.3% 1325 02-09-16
28 RPGnutter 74.8% 1352 02-09-16
29 sonicam 73.3% 1436 02-09-16
30 Cybrax 73.2% 1439 02-09-16
31 Ring Rush 70.4% 1588 02-09-16
32 mike89 69.7% 1630 02-09-16
33 NintenDan 69.4% 1642 02-09-16
34 a_moustache 67.7% 1737 02-09-16
35 SkyLights 65.5% 1851 02-09-16
36 Combo 64.2% 1924 02-09-16
37 SADXTryHard 62.0% 2041 02-09-16
38 P1 Pause 61.3% 2079 02-09-16
39 Nimrod 60.9% 2103 02-09-16
40 Groudon199 59.3% 2187 02-09-16
41 Game_Complete 59.1% 2198 02-09-16
42 Dawid8404 59.1% 2199 02-09-16
43 AxlThunder 58.6% 2227 02-09-16
44 Shadow Jacky 58.5% 2228 02-09-16
45 VMU Player Banned 57.7% 2272 02-09-16
46 Thorn 57.2% 2300 02-09-16
47 SB737 56.2% 2352 02-09-16
48 The Knuckles Chao 56.2% 2353 02-09-16
49 Chao_Fan 55.7% 2379 02-09-16
49 Parax 55.7% 2379 02-09-16
51 SadisticMystic 55.6% 2387 02-09-16
52 Mastakirby 55.3% 2403 02-09-16
53 KinkyCadence 55.0% 2416 02-09-16
54 LittleBigness 55.0% 2419 02-09-16
55 mauserman 54.9% 2425 02-09-16
56 OmegaDJ 54.7% 2433 02-09-16
57 Psyknux 54.6% 2438 02-09-16
58 magnum12 53.9% 2480 02-09-16
59 Auriman1 53.8% 2483 02-09-16
60 Turbos 53.4% 2507 02-09-16
61 GerbilSoft 52.8% 2534 02-09-16
62 GreatStar 52.7% 2540 02-09-16
63 Webber3000 52.1% 2572 02-09-16
64 Hipertails12 51.5% 2608 02-09-16
65 James_Bertolli 48.9% 2744 02-09-16
66 Cream147 48.4% 2771 02-09-16
67 Skylace 48.0% 2795 02-09-16
68 welldooder64 47.9% 2800 02-09-16
69 Diamond 47.7% 2809 02-09-16
70 Omega Rafael Santos 47.7% 2811 02-09-16
71 Quartz 47.4% 2827 02-09-16
72 Psymar 47.1% 2843 02-09-16
73 SonicWinDX 46.8% 2861 02-09-16
74 teamblackarms 46.0% 2905 02-09-16
75 Andrea Ritsu 45.4% 2936 02-09-16
76 buddychaos0415 45.3% 2940 02-09-16
77 SilverSonic 44.9% 2964 02-09-16
78 itsPersonnal 44.2% 3002 02-09-16
79 WeegeeZV 44.1% 3003 02-09-16
80 SilvertheAlmighty 44.1% 3007 02-09-16
81 metanightmare22 43.1% 3056 02-09-16
82 lordmetalsonic 41.0% 3169 02-09-16
83 Arch 40.7% 3190 02-09-16
84 Termon 40.3% 3211 02-09-16
85 videogamemaster777 39.8% 3236 02-09-16
86 supersonicfan 39.4% 3258 02-09-16
87 Drakodan 39.2% 3266 02-09-16
88 Kanimayo_Jp 39.0% 3280 02-09-16
89 paulie9990 38.5% 3308 02-09-16
90 LilZero 38.4% 3310 02-09-16
91 FuzZerd 38.1% 3326 02-09-16
92 supersonic465 38.0% 3333 02-09-16
93 eggFL 37.5% 3360 02-09-16
94 Don 37.5% 3362 02-09-16
95 Fr3nZy 35.9% 3444 02-09-16
95 Siavash Tazari 35.9% 3444 02-09-16
97 Cod4Scopes 35.1% 3489 02-09-16
98 f0rever_zer0 34.9% 3500 02-09-16
99 Cyan Ryan 34.3% 3534 02-09-16
100 Austinf 34.0% 3547 02-09-16
101 LinksDarkArrows 33.9% 3552 02-09-16
102 Therio 33.9% 3554 02-09-16
103 danieldude 33.4% 3582 02-09-16
104 elecmouse101 33.0% 3600 02-09-16
105 Staf 32.8% 3611 02-09-16
106 MiStEr_ShAoLiN 32.5% 3629 02-09-16
107 BrokenArthritis 32.3% 3638 02-09-16
108 Twilisailor 32.1% 3652 02-09-16
109 videogamer1014 31.9% 3660 02-09-16
110 Xia 31.5% 3684 02-09-16
111 welshmoose05 31.0% 3707 02-09-16
112 OddCook 30.1% 3756 02-09-16
113 Mcshuggets 29.9% 3770 02-09-16
114 The Great Lord Mick 29.8% 3772 02-09-16
115 Maxinfamily 29.7% 3782 02-09-16
116 Aitamen 29.3% 3799 02-09-16
117 joecoolgames 29.3% 3801 02-09-16
118 Matt_TY 29.1% 3812 02-09-16
119 dabestgamer 28.8% 3826 02-09-16
120 imazor017 28.8% 3827 02-09-16
121 SuperSonic101 27.8% 3882 02-09-16
122 Shadowthegreat 27.5% 3899 02-09-16
123 superjupi 27.4% 3903 02-09-16
124 Hunters13 27.1% 3917 02-09-16
125 thewaytodawnnn 27.1% 3919 02-09-16
126 Rolken 26.9% 3928 02-09-16
127 iarebored 26.5% 3949 02-09-16
128 SaviourDC 26.4% 3955 02-09-16
129 sonamyfan666 26.3% 3960 02-09-16
130 Spinballwizard 26.0% 3978 02-09-16
131 SonicKnuckles 25.9% 3986 02-09-16
132 EngiNerd 24.9% 4036 02-09-16
133 adf 24.9% 4037 02-09-16
134 Megaman EXE565 24.3% 4072 02-09-16
135 The T 23.9% 4091 02-09-16
136 Pokemonmaster888 23.3% 4126 02-09-16
137 Sonic Singularity 23.2% 4127 02-09-16
138 Platformer 23.2% 4129 02-09-16
139 SeaWolf 23.1% 4133 02-09-16
140 ethmar 22.7% 4158 02-09-16
141 timpkmn89 22.6% 4162 02-09-16
142 Swift Hobo 22.6% 4163 02-09-16
143 Rickyman48 22.1% 4189 02-09-16
144 Sondow 21.9% 4200 02-09-16
145 FoxBoy 21.5% 4223 02-09-16
146 koinu93 21.4% 4227 02-09-16
147 KitsuneYamaro 21.3% 4233 02-09-16
148 TFEC Headshot 21.1% 4243 02-09-16
149 Jerzia 20.9% 4252 02-09-16
150 Kogen Player Banned 20.5% 4273 02-09-16
151 Starlight Sable 20.0% 4301 02-09-16
152 IsisDazs 19.6% 4322 02-09-16
153 HyperSonic64 19.3% 4340 02-09-16
154 crazy1993 18.9% 4360 02-09-16
155 andres430 18.7% 4372 02-09-16
156 SonicU260 17.6% 4431 02-09-16
157 SonicAD 17.4% 4442 02-09-16
158 MPit08 17.3% 4445 02-09-16
159 sonicd5 17.3% 4447 02-09-16
160 iSonicKid2K 16.6% 4483 02-09-16
161 dShadow 16.6% 4485 02-09-16
162 Miles9999 16.0% 4514 02-09-16
163 BigAL49 16.0% 4515 02-09-16
164 Cutiefox 16.0% 4516 02-09-16
165 Chawkk 16.0% 4517 02-09-16
166 Monkeh 15.7% 4531 02-09-16
167 DaDude 15.4% 4551 02-09-16
168 Drflash55 15.0% 4571 02-09-16
169 Bass 14.7% 4588 02-09-16
170 Yish 14.6% 4591 02-09-16
171 neaolas 14.4% 4605 02-09-16
172 Cruizer 14.3% 4606 02-09-16
173 UninspiredUsername 14.3% 4610 02-09-16
174 zapp 14.2% 4611 02-09-16
175 superiorsonic 14.1% 4618 02-09-16
176 gamefreak1292 13.9% 4630 02-09-16
177 Cooljay 13.2% 4669 02-09-16
178 Chaos_Overlord 12.9% 4683 02-09-16
179 Badlex727 12.4% 4712 02-09-16
180 Valfore 12.3% 4713 02-09-16
181 SuperBlitzCraig 12.1% 4728 02-09-16
182 GarnetPrincess 12.1% 4729 02-09-16
183 ShinigamiMachine 12.0% 4733 02-09-16
184 soniccoloursunleashed 11.8% 4741 02-09-16
185 Sonicsuperstar1 11.5% 4758 02-09-16
186 FocusSight64 11.0% 4784 02-09-16
187 Werey 10.9% 4789 02-09-16
188 booo95 10.9% 4791 02-09-16
189 SirTobbii 10.7% 4801 02-09-16
190 Mo Player Banned 10.6% 4807 02-09-16
191 sonicspeed 10.5% 4814 02-09-16
192 Venick409 9.7% 4853 02-09-16
193 Sithwarrior26 9.6% 4860 02-09-16
194 ingx24 9.2% 4881 02-09-16
195 CyberShadow 9.1% 4889 02-09-16
196 Fozer 8.6% 4912 02-09-16
197 Egor305 8.6% 4916 02-09-16
198 Colomb_30 8.4% 4928 02-09-16
198 Regano1000 8.4% 4928 02-09-16
200 dekki1234 8.3% 4932 02-09-16
201 1stKirbyever 8.1% 4941 02-09-16
202 nuckrieg 7.8% 4958 02-09-16
203 Brian_pso 7.7% 4961 02-09-16
204 douglas 7.5% 4973 02-09-16
205 TakaRikka 7.4% 4978 02-09-16
206 Th4tN1nj4Turtl3 7.4% 4981 02-09-16
207 Zip 7.3% 4986 02-09-16
208 nman36 7.1% 4993 02-09-16
209 Mariosonic15 7.0% 4999 02-09-16
210 wheatrich 7.0% 5002 02-09-16
211 SonataSpinDash 6.9% 5006 02-09-16
212 MStitomix 6.8% 5014 02-09-16
213 HermitHelmet 6.6% 5020 02-09-16
213 ieatatsonic 6.6% 5020 02-09-16
215 niscool 6.5% 5025 02-09-16
216 Got4n 6.4% 5033 02-09-16
217 Cort_pso 6.4% 5035 02-09-16
218 Triseena 6.2% 5043 02-09-16
219 Jose_15 6.1% 5050 02-09-16
220 SuperSonicfan9595 5.8% 5065 02-09-16
221 Artie 5.8% 5066 02-09-16
221 BlankTH 5.8% 5066 02-09-16
223 Ace747 5.5% 5080 02-09-16
223 HHNNBBHHN 5.5% 5080 02-09-16
225 Richied 5.3% 5091 02-09-16
226 Paixii 5.3% 5094 02-09-16
227 Aiko 5.1% 5101 02-09-16
228 BallzeH 5.0% 5110 02-09-16
229 slade23 5.0% 5111 02-09-16
230 FSSRandomvids 4.9% 5114 02-09-16
231 ArcticDragon 4.9% 5116 02-09-16
232 Mankster101 4.8% 5118 02-09-16
232 PsyBorg 4.8% 5118 02-09-16
234 BecauseWarAnvil 4.8% 5121 02-09-16
234 Jamixesa 4.8% 5121 02-09-16
236 Crydio 4.6% 5128 02-09-16
236 Nickson98 4.6% 5128 02-09-16
238 TheUltraBlur 4.5% 5137 02-09-16
239 ReuelBrony 4.4% 5141 02-09-16
240 stanski 4.3% 5148 02-09-16
241 MarewBFN 4.2% 5150 02-09-16
242 tal39h 4.1% 5158 02-09-16
243 p0ker 4.0% 5163 02-09-16
244 knuckles_sonic8 4.0% 5164 02-09-16
245 Blue Infamy 3.9% 5165 02-09-16
246 ErrortheCucco 3.8% 5175 02-09-16
247 Rikum22 3.7% 5178 02-09-16
248 sonic1001 3.6% 5186 02-09-16
249 TheChaosEmeraIds 3.5% 5189 02-09-16
250 AJSIV 3.4% 5193 02-09-16
250 syco1098 3.4% 5193 02-09-16
252 Sonic the Hedgehod16 3.3% 5198 02-09-16
253 sonicfan9 3.2% 5204 02-09-16
254 Calfd 3.2% 5207 02-09-16
255 themachoman202 3.0% 5218 02-09-16
256 MK 2.9% 5222 02-09-16
257 Fivavoa 2.8% 5228 02-09-16
257 Mr. Jones 2.8% 5228 02-09-16
259 BlackArmsShadow 2.7% 5230 02-09-16
259 djmat 2.7% 5230 02-09-16
261 arcfx1985 2.7% 5231 02-09-16
262 ptorflaxendrosis 2.7% 5233 02-09-16
263 Sonique Hedgehog 2.6% 5235 02-09-16
264 FlandreScarlet9999vr 2.6% 5238 02-09-16
265 Zeldocto 2.5% 5241 02-09-16
266 BeeAwwb 2.4% 5247 02-09-16
267 KaM Mark MaK 2.4% 5248 02-09-16
268 ShadouZaHejjihoggu 2.3% 5253 02-09-16
269 darkstarblaze 2.2% 5261 02-09-16
269 Sonic The Star 2.2% 5261 02-09-16
271 darkersupershadic 2.1% 5262 02-09-16
272 SpiritDragon1995 2.1% 5263 02-09-16
273 sonic29887 2.1% 5265 02-09-16
274 Grady219 2.0% 5268 02-09-16
274 Sarger001 2.0% 5268 02-09-16
276 Jawaah 2.0% 5272 02-09-16
277 shadowblast63 Player Banned 1.9% 5273 02-09-16
278 Antek 1.8% 5278 02-09-16
279 Klaus 1.8% 5280 02-09-16
280 BioShadow 1.7% 5285 02-09-16
281 Shanekilz 1.4% 5301 02-09-16
282 SkyBon 1.4% 5302 02-09-16
283 isaihtb11 1.4% 5304 02-09-16
284 OhNoes! 1.3% 5306 02-09-16
285 zaktu40 1.3% 5307 02-09-16
286 gaara1234 1.3% 5310 02-09-16
287 S-MS32X-S 1.2% 5312 02-09-16
288 MastaToken 1.1% 5317 02-09-16
289 Mister_Slick 1.0% 5321 02-09-16
290 Sonic06Fan 1.0% 5325 02-09-16
291 Rush Hero 1.0% 5326 02-09-16
292 SonicMega167 0.9% 5330 02-09-16
293 gamed00d 0.8% 5333 02-09-16
293 oTaiIilLsS 0.8% 5333 02-09-16
293 SilverK 0.8% 5333 02-09-16
296 Burningskull123 0.5% 5349 02-09-16
297 Heroes_Hater 0.5% 5352 02-09-16
298 Sonicontherun 0.3% 5360 02-09-16
299 antiwwe 0.2% 5366 02-09-16
300 Iwannabelink 0.2% 5368 02-09-16
301 Genuine Hedgehog 0.1% 5370 02-09-16
302 dragondragon18 0.1% 5373 02-09-16
303 SonicK100 0.1% 5374 02-09-16
304 Tyrouble 0.0% 5379 02-09-16
305 LancexExWx 0.0% 5380 02-09-16
305 neji_hyuuga 0.0% 5380 02-09-16
305 Over 0.0% 5380 02-09-16
305 sdj6707 Player Banned 0.0% 5380 02-09-16
305 Tran Sonic Fan Player Banned 0.0% 5380 02-09-16

This page is using the New Data Table System. [FUTURE]

Game ID: 3 | Category ID: 1
Hits: 7,850 | Hits This Month: 56 | DB Calls: 24 | Mem Usage: 5.45 MB | Time: 0.49s | Printable

The Sonic Center v3.9
Copyright 2003-2011 by The Sonic Center Team.